Kittitas — WYQ9302 — position and weather

sailwx.info

Track history (hours):
 
Tides and Currents Weather Stations Pressure Air Temp Water Temp Dewpoint Dewpoint Depression Visibility Wind Speed Wind Dir Waves Ship Positions

Kittitas

Owner: WASHINGTON, STATE OF; Dept. of Transportation, OLYMPIA, WA. More information available from US FCC via Universal Licensing System and Coast Guard Vessel Documentation Center.

Last reported at 2015-Jan-29 09:17 UTC. Time now 2015-Jan-29 10:20 UTC.
Position N 47°58' W 122°21'.

Length 100 m; draft 4.7 m.

Type: Passenger vessel. MMSI: 366772960.

Date/timePositionNaut miles runAvg speedWind from/ knotsBaromVisibWave heightAir tempDewpointWater temp
2015-Jan-29 09:17N 47°58' W 122°21'110.5
2015-Jan-29 09:11N 47°58' W 122°20'1 1.1
2015-Jan-29 08:33N 47°58' W 122°21'0 0.1
2015-Jan-29 07:33N 47°58' W 122°20'0 0.2
2015-Jan-29 06:33N 47°58' W 122°21'0 0.1
2015-Jan-29 05:33N 47°58' W 122°21'2 2.8
2015-Jan-29 04:49N 47°57' W 122°18'2 7.1
2015-Jan-29 04:33N 47°58' W 122°21'2 3.3
2015-Jan-29 03:59N 47°57' W 122°18'2 4.6
2015-Jan-29 03:34N 47°58' W 122°21'0 0.1
2015-Jan-29 02:33N 47°58' W 122°21'0 0.1
2015-Jan-29 01:34N 47°58' W 122°21'012.9
2015-Jan-29 01:34N 47°58' W 122°21'0 0.6
2015-Jan-29 01:10N 47°58' W 122°21'0 0.2
2015-Jan-29 00:33N 47°58' W 122°21'0 0.1
2015-Jan-28 23:34N 47°58' W 122°21'010.8
2015-Jan-28 23:33N 47°58' W 122°21'0 0.2
2015-Jan-28 23:14N 47°58' W 122°21'0 0.1
2015-Jan-28 22:33N 47°58' W 122°21'0 0.3
2015-Jan-28 21:33N 47°58' W 122°20'2 3.1
2015-Jan-28 20:58N 47°57' W 122°18'2 4.5
2015-Jan-28 20:33N 47°58' W 122°20'1 1.1
2015-Jan-28 19:38N 47°58' W 122°19'114.4
2015-Jan-28 19:33N 47°58' W 122°21'0 0.1
2015-Jan-28 18:33N 47°58' W 122°21'0 0.2
2015-Jan-28 17:33N 47°58' W 122°21'1 1.9
2015-Jan-28 17:06N 47°58' W 122°20'1 1.4
2015-Jan-28 16:33N 47°58' W 122°20'0 0.6
2015-Jan-28 16:11N 47°58' W 122°21'0 0.2
2015-Jan-28 15:34N 47°58' W 122°21'1 0.5
2015-Jan-28 14:35N 47°58' W 122°20'013.2
2015-Jan-28 14:33N 47°58' W 122°20'0 0.1
2015-Jan-28 13:34N 47°58' W 122°21'0 0.4
2015-Jan-28 12:30N 47°59' W 122°21'0 0.0
2015-Jan-28 11:23N 47°59' W 122°21'0 0.0
2015-Jan-28 10:32N 47°59' W 122°21'0 0.0
2015-Jan-28 09:34N 47°59' W 122°21'0 0.0
2015-Jan-28 08:59N 47°59' W 122°21'0 0.1
2015-Jan-28 08:14N 47°59' W 122°21'0 0.0
2015-Jan-28 07:14N 47°59' W 122°21'0 0.0
2015-Jan-28 06:53N 47°59' W 122°21'0 0.1
2015-Jan-28 06:33N 47°59' W 122°21'0 0.0
2015-Jan-28 05:25N 47°59' W 122°21'0 0.3
2015-Jan-28 04:32N 47°58' W 122°21'1 2.4
2015-Jan-28 04:08N 47°58' W 122°20'1 1.2
2015-Jan-28 03:33N 47°58' W 122°20'016.4
2015-Jan-28 03:32N 47°58' W 122°21'0 0.1
2015-Jan-28 02:33N 47°58' W 122°21'1 1.9
2015-Jan-28 02:08N 47°58' W 122°20'1 1.4
2015-Jan-28 01:33N 47°58' W 122°21'1 2.1
2015-Jan-28 01:07N 47°57' W 122°20'1 1.4
2015-Jan-28 00:33N 47°58' W 122°20'0 0.5
2015-Jan-28 00:12N 47°58' W 122°21'0 0.6
2015-Jan-27 23:32N 47°58' W 122°21'0 0.5
2015-Jan-27 22:33N 47°58' W 122°20'1 1.4
2015-Jan-27 22:07N 47°58' W 122°20'1 1.3
2015-Jan-27 21:33N 47°58' W 122°21'1 1.7
2015-Jan-27 21:06N 47°58' W 122°20'1 1.1
2015-Jan-27 20:33N 47°58' W 122°20'012.3
2015-Jan-27 20:32N 47°58' W 122°21'0 0.4
2015-Jan-27 19:33N 47°58' W 122°20'0 0.1
2015-Jan-27 18:33N 47°58' W 122°21'0 9.6
2015-Jan-27 18:31N 47°58' W 122°21'0 0.3
2015-Jan-27 17:33N 47°58' W 122°21'0 0.2
2015-Jan-27 16:34N 47°58' W 122°20'0 0.3
2015-Jan-27 15:34N 47°58' W 122°20'1 1.1
2015-Jan-27 15:07N 47°58' W 122°20'1 1.4
2015-Jan-27 14:33N 47°58' W 122°21'0 9.0
2015-Jan-27 14:32N 47°58' W 122°21'0 0.4
2015-Jan-27 13:34N 47°58' W 122°20'1 0.5
2015-Jan-27 12:30N 47°59' W 122°21'0 0.0
2015-Jan-27 11:33N 47°59' W 122°21'0 0.0
2015-Jan-27 10:33N 47°59' W 122°21'0 0.0
2015-Jan-27 10:05N 47°59' W 122°21'0 0.0
2015-Jan-27 09:32N 47°59' W 122°21'0 0.0
2015-Jan-27 08:33N 47°59' W 122°21'0 0.0
2015-Jan-27 07:33N 47°59' W 122°21'0 0.0
2015-Jan-27 06:33N 47°59' W 122°21'0 0.0
2015-Jan-27 06:16N 47°59' W 122°21'0 0.0
2015-Jan-27 05:33N 47°59' W 122°21'1 0.7
2015-Jan-27 04:34N 47°58' W 122°20'0 0.0
2015-Jan-27 03:33N 47°58' W 122°20'0 0.3
2015-Jan-27 02:33N 47°58' W 122°21'0 0.5
2015-Jan-27 01:35N 47°58' W 122°20'015.1
2015-Jan-27 01:33N 47°58' W 122°21'1 0.6
2015-Jan-27 00:35N 47°58' W 122°20'117.4
2015-Jan-27 00:33N 47°58' W 122°21'1 1.3
2015-Jan-27 00:10N 47°58' W 122°20'1 0.9
2015-Jan-26 23:33N 47°58' W 122°21'0 1.0
2015-Jan-26 23:10N 47°58' W 122°20'0 0.5
2015-Jan-26 22:34N 47°58' W 122°21'0 0.1
2015-Jan-26 21:33N 47°58' W 122°21'0 0.0
2015-Jan-26 20:33N 47°58' W 122°21'0 0.2
2015-Jan-26 19:33N 47°58' W 122°21'1 0.6
2015-Jan-26 18:34N 47°58' W 122°20'015.9
2015-Jan-26 18:33N 47°58' W 122°20'0 0.0
2015-Jan-26 17:33N 47°58' W 122°20'0 0.1
2015-Jan-26 16:33N 47°58' W 122°21'0 0.0
2015-Jan-26 15:33N 47°58' W 122°21'0 0.0
2015-Jan-26 14:33N 47°58' W 122°21'0 0.3
2015-Jan-26 13:32N 47°58' W 122°21'0 0.4
2015-Jan-26 13:19N 47°58' W 122°21'0 0.1
2015-Jan-26 12:33N 47°58' W 122°21'0 0.0
2015-Jan-26 11:32N 47°58' W 122°21'0 0.0
2015-Jan-26 09:18N 47°58' W 122°21'1 9.9
2015-Jan-26 09:13N 47°58' W 122°20'1 0.8
2015-Jan-26 08:33N 47°58' W 122°21'0 0.0
2015-Jan-26 07:34N 47°58' W 122°21'1 1.8
2015-Jan-26 07:08N 47°58' W 122°20'1 1.6
2015-Jan-26 06:33N 47°58' W 122°21'1 2.2
2015-Jan-26 06:08N 47°58' W 122°20'1 0.9
2015-Jan-26 05:33N 47°58' W 122°20'1 1.6
2015-Jan-26 05:08N 47°57' W 122°20'1 1.6
2015-Jan-26 04:33N 47°58' W 122°21'0 0.1
2015-Jan-26 03:33N 47°58' W 122°20'012.9
2015-Jan-26 03:33N 47°58' W 122°21'0 0.0
2015-Jan-26 02:33N 47°58' W 122°21'0 0.0
2015-Jan-26 02:33N 47°58' W 122°21'0 0.2
2015-Jan-26 01:33N 47°58' W 122°21'0 0.1
2015-Jan-26 00:35N 47°58' W 122°21'0 7.6
2015-Jan-26 00:33N 47°58' W 122°21'0 0.3
2015-Jan-26 00:16N 47°58' W 122°21'0 0.1
2015-Jan-25 23:33N 47°58' W 122°21'1 1.7
2015-Jan-25 23:11N 47°58' W 122°20'0 0.7
2015-Jan-25 22:33N 47°58' W 122°21'1 0.7
2015-Jan-25 21:36N 47°58' W 122°20'112.1
2015-Jan-25 21:33N 47°58' W 122°20'0 7.8
2015-Jan-25 21:30N 47°58' W 122°21'0 0.0
2015-Jan-25 20:32N 47°58' W 122°21'0 0.2
2015-Jan-25 19:32N 47°58' W 122°21'1 2.0
2015-Jan-25 19:09N 47°58' W 122°20'1 1.3
2015-Jan-25 18:33N 47°58' W 122°21'0 0.1
2015-Jan-25 17:34N 47°58' W 122°21'0 0.1
2015-Jan-25 16:34N 47°58' W 122°20'011.7
2015-Jan-25 16:33N 47°58' W 122°21'0 2.0
2015-Jan-25 16:23N 47°58' W 122°21'0 0.1
2015-Jan-25 15:34N 47°58' W 122°21'0 0.2
2015-Jan-25 14:33N 47°58' W 122°21'0 7.8
2015-Jan-25 14:32N 47°58' W 122°21'0 0.2
2015-Jan-25 13:33N 47°58' W 122°21'013.2
2015-Jan-25 13:33N 47°58' W 122°21'0 0.2
2015-Jan-25 12:33N 47°58' W 122°21'0 0.0
2015-Jan-25 11:33N 47°58' W 122°21'0 0.0
2015-Jan-25 10:24N 47°58' W 122°21'0 0.0
2015-Jan-25 09:32N 47°58' W 122°21'0 0.3
2015-Jan-25 09:16N 47°58' W 122°21'0 0.3
2015-Jan-25 08:34N 47°58' W 122°21'1 2.2
2015-Jan-25 08:10N 47°58' W 122°20'1 1.4
2015-Jan-25 07:33N 47°58' W 122°21'2 2.9
2015-Jan-25 06:50N 47°57' W 122°18'2 7.2
2015-Jan-25 06:33N 47°58' W 122°21'0 0.4
2015-Jan-25 05:33N 47°58' W 122°20'0 0.4
2015-Jan-25 04:33N 47°58' W 122°21'0 0.0
2015-Jan-25 03:33N 47°58' W 122°20'0 0.2
2015-Jan-25 02:33N 47°58' W 122°21'0 0.1
2015-Jan-25 01:34N 47°58' W 122°21'1 0.8
2015-Jan-25 00:36N 47°58' W 122°20'111.8
2015-Jan-25 00:34N 47°58' W 122°21'0 6.7
2015-Jan-25 00:31N 47°58' W 122°21'0 0.2
2015-Jan-24 23:33N 47°58' W 122°21'0 0.1
2015-Jan-24 23:15N 47°58' W 122°21'0 0.4
2015-Jan-24 22:33N 47°58' W 122°20'2 2.3
2015-Jan-24 21:44N 47°57' W 122°18'210.3
2015-Jan-24 21:33N 47°58' W 122°20'0 0.0
2015-Jan-24 20:33N 47°58' W 122°20'0 0.1
2015-Jan-24 19:33N 47°58' W 122°21'0 0.1
2015-Jan-24 18:33N 47°58' W 122°21'0 0.1
2015-Jan-24 17:34N 47°58' W 122°21'1 0.7
2015-Jan-24 16:37N 47°58' W 122°20'110.9
2015-Jan-24 16:33N 47°58' W 122°21'0 0.4
2015-Jan-24 15:37N 47°58' W 122°20'111.6
2015-Jan-24 15:33N 47°58' W 122°21'0 0.2
2015-Jan-24 14:33N 47°58' W 122°21'1 1.8
2015-Jan-24 14:06N 47°58' W 122°20'1 1.2
2015-Jan-24 13:33N 47°58' W 122°21'0 0.2
2015-Jan-24 11:33N 47°58' W 122°21'0 0.0
2015-Jan-24 10:33N 47°58' W 122°21'0 0.0
2015-Jan-24 09:33N 47°58' W 122°21'1 0.7
2015-Jan-24 08:33N 47°58' W 122°20'1 1.4
2015-Jan-24 08:10N 47°58' W 122°21'1 1.9
2015-Jan-24 07:33N 47°58' W 122°20'116.4
2015-Jan-24 07:29N 47°58' W 122°21'0 0.1
2015-Jan-24 06:33N 47°58' W 122°21'0 0.3
2015-Jan-24 05:33N 47°58' W 122°20'0 0.4
2015-Jan-24 04:31N 47°58' W 122°21'0 0.3
2015-Jan-24 03:33N 47°58' W 122°21'0 0.5
2015-Jan-24 03:14N 47°58' W 122°21'0 0.2
2015-Jan-24 02:33N 47°58' W 122°21'0 0.6
2015-Jan-24 02:13N 47°58' W 122°21'0 0.1
2015-Jan-24 01:33N 47°58' W 122°21'0 0.2
2015-Jan-24 00:33N 47°58' W 122°21'0 0.4
2015-Jan-23 23:34N 47°58' W 122°20'0 0.2
2015-Jan-23 22:33N 47°58' W 122°21'2 3.0
2015-Jan-23 21:52N 47°57' W 122°18'2 6.8
2015-Jan-23 21:33N 47°58' W 122°21'0 0.1
2015-Jan-23 20:33N 47°58' W 122°21'0 0.2
2015-Jan-23 19:33N 47°58' W 122°21'0 0.1
2015-Jan-23 18:33N 47°58' W 122°21'0 0.1
2015-Jan-23 17:33N 47°58' W 122°20'0 0.2
2015-Jan-23 16:33N 47°58' W 122°21'0 0.1
2015-Jan-23 15:33N 47°58' W 122°21'0 0.2
2015-Jan-23 14:33N 47°58' W 122°21'0 0.1
2015-Jan-23 13:33N 47°58' W 122°20'1 0.5
2015-Jan-23 12:33N 47°59' W 122°21'0 0.0
2015-Jan-23 11:33N 47°59' W 122°21'0 0.0
2015-Jan-23 10:33N 47°59' W 122°21'0 0.0
2015-Jan-23 09:33N 47°59' W 122°21'0 0.0
2015-Jan-23 08:33N 47°59' W 122°21'0 0.0
2015-Jan-23 07:32N 47°59' W 122°21'0 0.0
2015-Jan-23 05:33N 47°59' W 122°21'0 0.4
2015-Jan-23 04:33N 47°58' W 122°21'0 0.1
2015-Jan-23 03:32N 47°58' W 122°21'1 2.2
2015-Jan-23 03:07N 47°58' W 122°20'1 1.4
2015-Jan-23 02:33N 47°58' W 122°20'0 0.2
2015-Jan-23 01:33N 47°58' W 122°21'011.0
2015-Jan-23 01:33N 47°58' W 122°21'0 0.4
2015-Jan-23 00:33N 47°58' W 122°20'0 0.0
2015-Jan-22 23:33N 47°58' W 122°20'0 0.1
2015-Jan-22 22:37N 47°58' W 122°20'0 0.2
2015-Jan-22 22:33N 47°58' W 122°20'0 0.3
2015-Jan-22 21:34N 47°58' W 122°21'1 2.8
2015-Jan-22 21:12N 47°58' W 122°20'1 1.3
2015-Jan-22 20:33N 47°58' W 122°20'1 0.6
2015-Jan-22 19:33N 47°59' W 122°21'1 0.6
2015-Jan-22 18:36N 47°58' W 122°20'114.7
2015-Jan-22 18:33N 47°59' W 122°21'1 1.0
2015-Jan-22 17:36N 47°58' W 122°20'113.8
2015-Jan-22 17:33N 47°58' W 122°21'0 0.3
2015-Jan-22 16:33N 47°58' W 122°21'2 3.1
2015-Jan-22 15:51N 47°57' W 122°18'2 7.0
2015-Jan-22 15:33N 47°58' W 122°21'0 2.3
2015-Jan-22 15:25N 47°58' W 122°21'0 0.2
2015-Jan-22 14:33N 47°58' W 122°21'1 0.7
2015-Jan-22 13:35N 47°58' W 122°20'016.6
2015-Jan-22 13:33N 47°58' W 122°20'1 0.8
2015-Jan-22 12:45N 47°58' W 122°20'1 6.0
2015-Jan-22 12:33N 47°58' W 122°21'0 0.0
2015-Jan-22 11:25N 47°58' W 122°21'0 0.0
2015-Jan-22 10:34N 47°58' W 122°21'0 0.0
2015-Jan-22 09:34N 47°58' W 122°21'2 3.6
2015-Jan-22 08:55N 47°57' W 122°18'2 4.6
2015-Jan-22 08:33N 47°58' W 122°20'1 1.9
2015-Jan-22 08:04N 47°57' W 122°19'1 2.3
2015-Jan-22 07:33N 47°58' W 122°20'0 0.1
2015-Jan-22 06:33N 47°58' W 122°21'0 0.2
2015-Jan-22 06:09N 47°58' W 122°21'0 0.3
2015-Jan-22 05:33N 47°58' W 122°20'0 0.2
2015-Jan-22 04:33N 47°58' W 122°21'0 0.2
2015-Jan-22 03:33N 47°58' W 122°20'1 0.6
2015-Jan-22 02:33N 47°59' W 122°21'1 0.6
2015-Jan-22 01:34N 47°58' W 122°20'0 0.2
2015-Jan-22 00:33N 47°58' W 122°21'0 0.0
2015-Jan-21 23:32N 47°58' W 122°21'0 8.5
2015-Jan-21 23:30N 47°58' W 122°21'2 3.5
2015-Jan-21 22:50N 47°57' W 122°18'0 0.0
2015-Jan-21 22:46N 47°57' W 122°18'2 9.0
2015-Jan-21 22:33N 47°58' W 122°20'0 0.2
2015-Jan-21 21:33N 47°58' W 122°20'0 0.4
2015-Jan-21 20:34N 47°58' W 122°21'0 8.8
2015-Jan-21 20:33N 47°58' W 122°21'0 0.2
2015-Jan-21 19:33N 47°58' W 122°21'0 0.0
2015-Jan-21 18:33N 47°58' W 122°21'0 0.2
2015-Jan-21 17:33N 47°58' W 122°20'0 0.3
2015-Jan-21 16:32N 47°58' W 122°21'0 0.2
2015-Jan-21 15:33N 47°58' W 122°21'0 0.3
2015-Jan-21 14:33N 47°58' W 122°21'0 0.2
2015-Jan-21 13:33N 47°58' W 122°20'1 1.2
2015-Jan-21 12:49N 47°58' W 122°19'2 6.1
2015-Jan-21 12:34N 47°59' W 122°21'0 0.0
2015-Jan-21 11:34N 47°59' W 122°21'0 0.0
2015-Jan-21 10:33N 47°59' W 122°21'0 0.0
2015-Jan-21 09:42N 47°59' W 122°21'0 0.3
2015-Jan-21 09:33N 47°59' W 122°21'0 0.0
2015-Jan-21 08:33N 47°59' W 122°21'0 0.0
2015-Jan-21 07:34N 47°59' W 122°21'0 0.0
2015-Jan-21 06:34N 47°59' W 122°21'0 0.0
2015-Jan-21 05:34N 47°59' W 122°21'1 0.6
2015-Jan-21 04:33N 47°58' W 122°20'0 0.2
2015-Jan-21 03:33N 47°58' W 122°21'0 0.1
2015-Jan-21 02:33N 47°58' W 122°20'1 1.5
2015-Jan-21 02:08N 47°58' W 122°20'1 1.4
2015-Jan-21 01:33N 47°58' W 122°21'0 0.7
2015-Jan-21 01:12N 47°58' W 122°21'0 0.3
2015-Jan-21 00:33N 47°58' W 122°21'010.0
2015-Jan-21 00:32N 47°58' W 122°21'0 0.1
2015-Jan-20 23:33N 47°58' W 122°21'0 0.3
2015-Jan-20 23:13N 47°58' W 122°21'0 0.3
2015-Jan-20 22:33N 47°58' W 122°21'0 1.0
2015-Jan-20 22:07N 47°58' W 122°20'0 0.4
2015-Jan-20 21:33N 47°58' W 122°20'1 1.5
2015-Jan-20 21:06N 47°57' W 122°20'1 1.8
2015-Jan-20 20:33N 47°58' W 122°21'1 2.1
2015-Jan-20 20:06N 47°57' W 122°20'1 1.8
2015-Jan-20 19:33N 47°58' W 122°21'1 2.2
2015-Jan-20 19:06N 47°58' W 122°20'1 1.7
2015-Jan-20 18:32N 47°58' W 122°21'0 0.2
2015-Jan-20 17:33N 47°58' W 122°21'1 0.6
2015-Jan-20 16:35N 47°58' W 122°20'014.1
2015-Jan-20 16:33N 47°58' W 122°20'0 0.1
2015-Jan-20 15:36N 47°58' W 122°20'0 9.1
2015-Jan-20 15:33N 47°58' W 122°21'1 2.5
2015-Jan-20 15:06N 47°57' W 122°20'1 1.8
2015-Jan-20 14:33N 47°58' W 122°21'0 0.1
2015-Jan-20 13:33N 47°58' W 122°21'0 0.4
2015-Jan-20 12:15N 47°59' W 122°21'0 0.1
2015-Jan-20 11:33N 47°59' W 122°21'0 0.0
2015-Jan-20 10:33N 47°59' W 122°21'0 0.0
2015-Jan-20 09:33N 47°59' W 122°21'0 0.0
2015-Jan-20 08:25N 47°59' W 122°21'0 0.0
2015-Jan-20 07:09N 47°59' W 122°21'0 0.0
2015-Jan-20 06:33N 47°59' W 122°21'0 0.0
2015-Jan-20 06:13N 47°59' W 122°21'0 0.0
2015-Jan-20 05:32N 47°59' W 122°21'0 0.3
2015-Jan-20 04:33N 47°58' W 122°21'0 0.6
2015-Jan-20 04:11N 47°58' W 122°21'0 0.3
2015-Jan-20 03:33N 47°58' W 122°20'0 0.4
2015-Jan-20 02:34N 47°58' W 122°21'1 0.9
2015-Jan-20 01:35N 47°58' W 122°20'115.4
2015-Jan-20 01:33N 47°58' W 122°21'0 0.1
2015-Jan-20 00:33N 47°58' W 122°21'0 0.2
2015-Jan-19 23:35N 47°58' W 122°21'013.6
2015-Jan-19 23:33N 47°58' W 122°21'1 0.8
2015-Jan-19 22:35N 47°58' W 122°20'114.5
2015-Jan-19 22:32N 47°58' W 122°21'0 0.2
2015-Jan-19 22:10N 47°58' W 122°21'0 0.4
2015-Jan-19 21:33N 47°58' W 122°20'0 0.2
2015-Jan-19 20:33N 47°58' W 122°21'1 0.6
2015-Jan-19 19:34N 47°58' W 122°20'017.4
2015-Jan-19 19:33N 47°58' W 122°20'1 1.7
2015-Jan-19 19:05N 47°57' W 122°20'1 1.8
2015-Jan-19 18:33N 47°58' W 122°21'0 0.1
2015-Jan-19 17:33N 47°58' W 122°21'2 3.4
2015-Jan-19 16:59N 47°57' W 122°18'2 5.5
2015-Jan-19 16:33N 47°58' W 122°21'0 0.3
2015-Jan-19 15:33N 47°58' W 122°21'0 0.2
2015-Jan-19 14:32N 47°58' W 122°21'2 3.8
2015-Jan-19 13:58N 47°57' W 122°18'2 4.4
2015-Jan-19 13:33N 47°58' W 122°20'0 0.5
2015-Jan-19 12:31N 47°58' W 122°21'0 0.0
2015-Jan-19 11:22N 47°58' W 122°21'0 0.0
2015-Jan-19 09:33N 47°58' W 122°21'  
Track history (hours):
 
Tides and Currents Weather Stations Pressure Air Temp Water Temp Dewpoint Dewpoint Depression Visibility Wind Speed Wind Dir Waves Ship Positions

Kittitas

Owner: WASHINGTON, STATE OF; Dept. of Transportation, OLYMPIA, WA. More information available from US FCC via Universal Licensing System and Coast Guard Vessel Documentation Center.

Last reported at 2015-Jan-29 09:17 UTC. Time now 2015-Jan-29 10:20 UTC.
Position N 47°58' W 122°21'.

Length 100 m; draft 4.7 m.

Type: Passenger vessel. MMSI: 366772960.

Date/timePositionNaut miles runAvg speedWind from/ knotsBaromVisibWave heightAir tempDewpointWater temp
2015-Jan-29 09:17N 47°58' W 122°21'110.5
2015-Jan-29 09:11N 47°58' W 122°20'1 1.1
2015-Jan-29 08:33N 47°58' W 122°21'0 0.1
2015-Jan-29 07:33N 47°58' W 122°20'0 0.2
2015-Jan-29 06:33N 47°58' W 122°21'0 0.1
2015-Jan-29 05:33N 47°58' W 122°21'2 2.8
2015-Jan-29 04:49N 47°57' W 122°18'2 7.1
2015-Jan-29 04:33N 47°58' W 122°21'2 3.3
2015-Jan-29 03:59N 47°57' W 122°18'2 4.6
2015-Jan-29 03:34N 47°58' W 122°21'0 0.1
2015-Jan-29 02:33N 47°58' W 122°21'0 0.1
2015-Jan-29 01:34N 47°58' W 122°21'012.9
2015-Jan-29 01:34N 47°58' W 122°21'0 0.6
2015-Jan-29 01:10N 47°58' W 122°21'0 0.2
2015-Jan-29 00:33N 47°58' W 122°21'0 0.1
2015-Jan-28 23:34N 47°58' W 122°21'010.8
2015-Jan-28 23:33N 47°58' W 122°21'0 0.2
2015-Jan-28 23:14N 47°58' W 122°21'0 0.1
2015-Jan-28 22:33N 47°58' W 122°21'0 0.3
2015-Jan-28 21:33N 47°58' W 122°20'2 3.1
2015-Jan-28 20:58N 47°57' W 122°18'2 4.5
2015-Jan-28 20:33N 47°58' W 122°20'1 1.1
2015-Jan-28 19:38N 47°58' W 122°19'114.4
2015-Jan-28 19:33N 47°58' W 122°21'0 0.1
2015-Jan-28 18:33N 47°58' W 122°21'0 0.2
2015-Jan-28 17:33N 47°58' W 122°21'1 1.9
2015-Jan-28 17:06N 47°58' W 122°20'1 1.4
2015-Jan-28 16:33N 47°58' W 122°20'0 0.6
2015-Jan-28 16:11N 47°58' W 122°21'0 0.2
2015-Jan-28 15:34N 47°58' W 122°21'1 0.5
2015-Jan-28 14:35N 47°58' W 122°20'013.2
2015-Jan-28 14:33N 47°58' W 122°20'0 0.1
2015-Jan-28 13:34N 47°58' W 122°21'0 0.4
2015-Jan-28 12:30N 47°59' W 122°21'0 0.0
2015-Jan-28 11:23N 47°59' W 122°21'0 0.0
2015-Jan-28 10:32N 47°59' W 122°21'0 0.0
2015-Jan-28 09:34N 47°59' W 122°21'0 0.0
2015-Jan-28 08:59N 47°59' W 122°21'0 0.1
2015-Jan-28 08:14N 47°59' W 122°21'0 0.0
2015-Jan-28 07:14N 47°59' W 122°21'0 0.0
2015-Jan-28 06:53N 47°59' W 122°21'0 0.1
2015-Jan-28 06:33N 47°59' W 122°21'0 0.0
2015-Jan-28 05:25N 47°59' W 122°21'0 0.3
2015-Jan-28 04:32N 47°58' W 122°21'1 2.4
2015-Jan-28 04:08N 47°58' W 122°20'1 1.2
2015-Jan-28 03:33N 47°58' W 122°20'016.4
2015-Jan-28 03:32N 47°58' W 122°21'0 0.1
2015-Jan-28 02:33N 47°58' W 122°21'1 1.9
2015-Jan-28 02:08N 47°58' W 122°20'1 1.4
2015-Jan-28 01:33N 47°58' W 122°21'1 2.1
2015-Jan-28 01:07N 47°57' W 122°20'1 1.4
2015-Jan-28 00:33N 47°58' W 122°20'0 0.5
2015-Jan-28 00:12N 47°58' W 122°21'0 0.6
2015-Jan-27 23:32N 47°58' W 122°21'0 0.5
2015-Jan-27 22:33N 47°58' W 122°20'1 1.4
2015-Jan-27 22:07N 47°58' W 122°20'1 1.3
2015-Jan-27 21:33N 47°58' W 122°21'1 1.7
2015-Jan-27 21:06N 47°58' W 122°20'1 1.1
2015-Jan-27 20:33N 47°58' W 122°20'012.3
2015-Jan-27 20:32N 47°58' W 122°21'0 0.4
2015-Jan-27 19:33N 47°58' W 122°20'0 0.1
2015-Jan-27 18:33N 47°58' W 122°21'0 9.6
2015-Jan-27 18:31N 47°58' W 122°21'0 0.3
2015-Jan-27 17:33N 47°58' W 122°21'0 0.2
2015-Jan-27 16:34N 47°58' W 122°20'0 0.3
2015-Jan-27 15:34N 47°58' W 122°20'1 1.1
2015-Jan-27 15:07N 47°58' W 122°20'1 1.4
2015-Jan-27 14:33N 47°58' W 122°21'0 9.0
2015-Jan-27 14:32N 47°58' W 122°21'0 0.4
2015-Jan-27 13:34N 47°58' W 122°20'1 0.5
2015-Jan-27 12:30N 47°59' W 122°21'0 0.0
2015-Jan-27 11:33N 47°59' W 122°21'0 0.0
2015-Jan-27 10:33N 47°59' W 122°21'0 0.0
2015-Jan-27 10:05N 47°59' W 122°21'0 0.0
2015-Jan-27 09:32N 47°59' W 122°21'0 0.0
2015-Jan-27 08:33N 47°59' W 122°21'0 0.0
2015-Jan-27 07:33N 47°59' W 122°21'0 0.0
2015-Jan-27 06:33N 47°59' W 122°21'0 0.0
2015-Jan-27 06:16N 47°59' W 122°21'0 0.0
2015-Jan-27 05:33N 47°59' W 122°21'1 0.7
2015-Jan-27 04:34N 47°58' W 122°20'0 0.0
2015-Jan-27 03:33N 47°58' W 122°20'0 0.3
2015-Jan-27 02:33N 47°58' W 122°21'0 0.5
2015-Jan-27 01:35N 47°58' W 122°20'015.1
2015-Jan-27 01:33N 47°58' W 122°21'1 0.6
2015-Jan-27 00:35N 47°58' W 122°20'117.4
2015-Jan-27 00:33N 47°58' W 122°21'1 1.3
2015-Jan-27 00:10N 47°58' W 122°20'1 0.9
2015-Jan-26 23:33N 47°58' W 122°21'0 1.0
2015-Jan-26 23:10N 47°58' W 122°20'0 0.5
2015-Jan-26 22:34N 47°58' W 122°21'0 0.1
2015-Jan-26 21:33N 47°58' W 122°21'0 0.0
2015-Jan-26 20:33N 47°58' W 122°21'0 0.2
2015-Jan-26 19:33N 47°58' W 122°21'1 0.6
2015-Jan-26 18:34N 47°58' W 122°20'015.9
2015-Jan-26 18:33N 47°58' W 122°20'0 0.0
2015-Jan-26 17:33N 47°58' W 122°20'0 0.1
2015-Jan-26 16:33N 47°58' W 122°21'0 0.0
2015-Jan-26 15:33N 47°58' W 122°21'0 0.0
2015-Jan-26 14:33N 47°58' W 122°21'0 0.3
2015-Jan-26 13:32N 47°58' W 122°21'0 0.4
2015-Jan-26 13:19N 47°58' W 122°21'0 0.1
2015-Jan-26 12:33N 47°58' W 122°21'0 0.0
2015-Jan-26 11:32N 47°58' W 122°21'0 0.0
2015-Jan-26 09:18N 47°58' W 122°21'1 9.9
2015-Jan-26 09:13N 47°58' W 122°20'1 0.8
2015-Jan-26 08:33N 47°58' W 122°21'0 0.0
2015-Jan-26 07:34N 47°58' W 122°21'1 1.8
2015-Jan-26 07:08N 47°58' W 122°20'1 1.6
2015-Jan-26 06:33N 47°58' W 122°21'1 2.2
2015-Jan-26 06:08N 47°58' W 122°20'1 0.9
2015-Jan-26 05:33N 47°58' W 122°20'1 1.6
2015-Jan-26 05:08N 47°57' W 122°20'1 1.6
2015-Jan-26 04:33N 47°58' W 122°21'0 0.1
2015-Jan-26 03:33N 47°58' W 122°20'012.9
2015-Jan-26 03:33N 47°58' W 122°21'0 0.0
2015-Jan-26 02:33N 47°58' W 122°21'0 0.0
2015-Jan-26 02:33N 47°58' W 122°21'0 0.2
2015-Jan-26 01:33N 47°58' W 122°21'0 0.1
2015-Jan-26 00:35N 47°58' W 122°21'0 7.6
2015-Jan-26 00:33N 47°58' W 122°21'0 0.3
2015-Jan-26 00:16N 47°58' W 122°21'0 0.1
2015-Jan-25 23:33N 47°58' W 122°21'1 1.7
2015-Jan-25 23:11N 47°58' W 122°20'0 0.7
2015-Jan-25 22:33N 47°58' W 122°21'1 0.7
2015-Jan-25 21:36N 47°58' W 122°20'112.1
2015-Jan-25 21:33N 47°58' W 122°20'0 7.8
2015-Jan-25 21:30N 47°58' W 122°21'0 0.0
2015-Jan-25 20:32N 47°58' W 122°21'0 0.2
2015-Jan-25 19:32N 47°58' W 122°21'1 2.0
2015-Jan-25 19:09N 47°58' W 122°20'1 1.3
2015-Jan-25 18:33N 47°58' W 122°21'0 0.1
2015-Jan-25 17:34N 47°58' W 122°21'0 0.1
2015-Jan-25 16:34N 47°58' W 122°20'011.7
2015-Jan-25 16:33N 47°58' W 122°21'0 2.0
2015-Jan-25 16:23N 47°58' W 122°21'0 0.1
2015-Jan-25 15:34N 47°58' W 122°21'0 0.2
2015-Jan-25 14:33N 47°58' W 122°21'0 7.8
2015-Jan-25 14:32N 47°58' W 122°21'0 0.2
2015-Jan-25 13:33N 47°58' W 122°21'013.2
2015-Jan-25 13:33N 47°58' W 122°21'0 0.2
2015-Jan-25 12:33N 47°58' W 122°21'0 0.0
2015-Jan-25 11:33N 47°58' W 122°21'0 0.0
2015-Jan-25 10:24N 47°58' W 122°21'0 0.0
2015-Jan-25 09:32N 47°58' W 122°21'0 0.3
2015-Jan-25 09:16N 47°58' W 122°21'0 0.3
2015-Jan-25 08:34N 47°58' W 122°21'1 2.2
2015-Jan-25 08:10N 47°58' W 122°20'1 1.4
2015-Jan-25 07:33N 47°58' W 122°21'2 2.9
2015-Jan-25 06:50N 47°57' W 122°18'2 7.2
2015-Jan-25 06:33N 47°58' W 122°21'0 0.4
2015-Jan-25 05:33N 47°58' W 122°20'0 0.4
2015-Jan-25 04:33N 47°58' W 122°21'0 0.0
2015-Jan-25 03:33N 47°58' W 122°20'0 0.2
2015-Jan-25 02:33N 47°58' W 122°21'0 0.1
2015-Jan-25 01:34N 47°58' W 122°21'1 0.8
2015-Jan-25 00:36N 47°58' W 122°20'111.8
2015-Jan-25 00:34N 47°58' W 122°21'0 6.7
2015-Jan-25 00:31N 47°58' W 122°21'0 0.2
2015-Jan-24 23:33N 47°58' W 122°21'0 0.1
2015-Jan-24 23:15N 47°58' W 122°21'0 0.4
2015-Jan-24 22:33N 47°58' W 122°20'2 2.3
2015-Jan-24 21:44N 47°57' W 122°18'210.3
2015-Jan-24 21:33N 47°58' W 122°20'0 0.0
2015-Jan-24 20:33N 47°58' W 122°20'0 0.1
2015-Jan-24 19:33N 47°58' W 122°21'0 0.1
2015-Jan-24 18:33N 47°58' W 122°21'0 0.1
2015-Jan-24 17:34N 47°58' W 122°21'1 0.7
2015-Jan-24 16:37N 47°58' W 122°20'110.9
2015-Jan-24 16:33N 47°58' W 122°21'0 0.4
2015-Jan-24 15:37N 47°58' W 122°20'111.6
2015-Jan-24 15:33N 47°58' W 122°21'0 0.2
2015-Jan-24 14:33N 47°58' W 122°21'1 1.8
2015-Jan-24 14:06N 47°58' W 122°20'1 1.2
2015-Jan-24 13:33N 47°58' W 122°21'0 0.2
2015-Jan-24 11:33N 47°58' W 122°21'0 0.0
2015-Jan-24 10:33N 47°58' W 122°21'0 0.0
2015-Jan-24 09:33N 47°58' W 122°21'1 0.7
2015-Jan-24 08:33N 47°58' W 122°20'1 1.4
2015-Jan-24 08:10N 47°58' W 122°21'1 1.9
2015-Jan-24 07:33N 47°58' W 122°20'116.4
2015-Jan-24 07:29N 47°58' W 122°21'0 0.1
2015-Jan-24 06:33N 47°58' W 122°21'0 0.3
2015-Jan-24 05:33N 47°58' W 122°20'0 0.4
2015-Jan-24 04:31N 47°58' W 122°21'0 0.3
2015-Jan-24 03:33N 47°58' W 122°21'0 0.5
2015-Jan-24 03:14N 47°58' W 122°21'0 0.2
2015-Jan-24 02:33N 47°58' W 122°21'0 0.6
2015-Jan-24 02:13N 47°58' W 122°21'0 0.1
2015-Jan-24 01:33N 47°58' W 122°21'0 0.2
2015-Jan-24 00:33N 47°58' W 122°21'0 0.4
2015-Jan-23 23:34N 47°58' W 122°20'0 0.2
2015-Jan-23 22:33N 47°58' W 122°21'2 3.0
2015-Jan-23 21:52N 47°57' W 122°18'2 6.8
2015-Jan-23 21:33N 47°58' W 122°21'0 0.1
2015-Jan-23 20:33N 47°58' W 122°21'0 0.2
2015-Jan-23 19:33N 47°58' W 122°21'0 0.1
2015-Jan-23 18:33N 47°58' W 122°21'0 0.1
2015-Jan-23 17:33N 47°58' W 122°20'0 0.2
2015-Jan-23 16:33N 47°58' W 122°21'0 0.1
2015-Jan-23 15:33N 47°58' W 122°21'0 0.2
2015-Jan-23 14:33N 47°58' W 122°21'0 0.1
2015-Jan-23 13:33N 47°58' W 122°20'1 0.5
2015-Jan-23 12:33N 47°59' W 122°21'0 0.0
2015-Jan-23 11:33N 47°59' W 122°21'0 0.0
2015-Jan-23 10:33N 47°59' W 122°21'0 0.0
2015-Jan-23 09:33N 47°59' W 122°21'0 0.0
2015-Jan-23 08:33N 47°59' W 122°21'0 0.0
2015-Jan-23 07:32N 47°59' W 122°21'0 0.0
2015-Jan-23 05:33N 47°59' W 122°21'0 0.4
2015-Jan-23 04:33N 47°58' W 122°21'0 0.1
2015-Jan-23 03:32N 47°58' W 122°21'1 2.2
2015-Jan-23 03:07N 47°58' W 122°20'1 1.4
2015-Jan-23 02:33N 47°58' W 122°20'0 0.2
2015-Jan-23 01:33N 47°58' W 122°21'011.0
2015-Jan-23 01:33N 47°58' W 122°21'0 0.4
2015-Jan-23 00:33N 47°58' W 122°20'0 0.0
2015-Jan-22 23:33N 47°58' W 122°20'0 0.1
2015-Jan-22 22:37N 47°58' W 122°20'0 0.2
2015-Jan-22 22:33N 47°58' W 122°20'0 0.3
2015-Jan-22 21:34N 47°58' W 122°21'1 2.8
2015-Jan-22 21:12N 47°58' W 122°20'1 1.3
2015-Jan-22 20:33N 47°58' W 122°20'1 0.6
2015-Jan-22 19:33N 47°59' W 122°21'1 0.6
2015-Jan-22 18:36N 47°58' W 122°20'114.7
2015-Jan-22 18:33N 47°59' W 122°21'1 1.0
2015-Jan-22 17:36N 47°58' W 122°20'113.8
2015-Jan-22 17:33N 47°58' W 122°21'0 0.3
2015-Jan-22 16:33N 47°58' W 122°21'2 3.1
2015-Jan-22 15:51N 47°57' W 122°18'2 7.0
2015-Jan-22 15:33N 47°58' W 122°21'0 2.3
2015-Jan-22 15:25N 47°58' W 122°21'0 0.2
2015-Jan-22 14:33N 47°58' W 122°21'1 0.7
2015-Jan-22 13:35N 47°58' W 122°20'016.6
2015-Jan-22 13:33N 47°58' W 122°20'1 0.8
2015-Jan-22 12:45N 47°58' W 122°20'1 6.0
2015-Jan-22 12:33N 47°58' W 122°21'0 0.0
2015-Jan-22 11:25N 47°58' W 122°21'0 0.0
2015-Jan-22 10:34N 47°58' W 122°21'0 0.0
2015-Jan-22 09:34N 47°58' W 122°21'2 3.6
2015-Jan-22 08:55N 47°57' W 122°18'2 4.6
2015-Jan-22 08:33N 47°58' W 122°20'1 1.9
2015-Jan-22 08:04N 47°57' W 122°19'1 2.3
2015-Jan-22 07:33N 47°58' W 122°20'0 0.1
2015-Jan-22 06:33N 47°58' W 122°21'0 0.2
2015-Jan-22 06:09N 47°58' W 122°21'0 0.3
2015-Jan-22 05:33N 47°58' W 122°20'0 0.2
2015-Jan-22 04:33N 47°58' W 122°21'0 0.2
2015-Jan-22 03:33N 47°58' W 122°20'1 0.6
2015-Jan-22 02:33N 47°59' W 122°21'1 0.6
2015-Jan-22 01:34N 47°58' W 122°20'0 0.2
2015-Jan-22 00:33N 47°58' W 122°21'0 0.0
2015-Jan-21 23:32N 47°58' W 122°21'0 8.5
2015-Jan-21 23:30N 47°58' W 122°21'2 3.5
2015-Jan-21 22:50N 47°57' W 122°18'0 0.0
2015-Jan-21 22:46N 47°57' W 122°18'2 9.0
2015-Jan-21 22:33N 47°58' W 122°20'0 0.2
2015-Jan-21 21:33N 47°58' W 122°20'0 0.4
2015-Jan-21 20:34N 47°58' W 122°21'0 8.8
2015-Jan-21 20:33N 47°58' W 122°21'0 0.2
2015-Jan-21 19:33N 47°58' W 122°21'0 0.0
2015-Jan-21 18:33N 47°58' W 122°21'0 0.2
2015-Jan-21 17:33N 47°58' W 122°20'0 0.3
2015-Jan-21 16:32N 47°58' W 122°21'0 0.2
2015-Jan-21 15:33N 47°58' W 122°21'0 0.3
2015-Jan-21 14:33N 47°58' W 122°21'0 0.2
2015-Jan-21 13:33N 47°58' W 122°20'1 1.2
2015-Jan-21 12:49N 47°58' W 122°19'2 6.1
2015-Jan-21 12:34N 47°59' W 122°21'0 0.0
2015-Jan-21 11:34N 47°59' W 122°21'0 0.0
2015-Jan-21 10:33N 47°59' W 122°21'0 0.0
2015-Jan-21 09:42N 47°59' W 122°21'0 0.3
2015-Jan-21 09:33N 47°59' W 122°21'0 0.0
2015-Jan-21 08:33N 47°59' W 122°21'0 0.0
2015-Jan-21 07:34N 47°59' W 122°21'0 0.0
2015-Jan-21 06:34N 47°59' W 122°21'0 0.0
2015-Jan-21 05:34N 47°59' W 122°21'1 0.6
2015-Jan-21 04:33N 47°58' W 122°20'0 0.2
2015-Jan-21 03:33N 47°58' W 122°21'0 0.1
2015-Jan-21 02:33N 47°58' W 122°20'1 1.5
2015-Jan-21 02:08N 47°58' W 122°20'1 1.4
2015-Jan-21 01:33N 47°58' W 122°21'0 0.7
2015-Jan-21 01:12N 47°58' W 122°21'0 0.3
2015-Jan-21 00:33N 47°58' W 122°21'010.0
2015-Jan-21 00:32N 47°58' W 122°21'0 0.1
2015-Jan-20 23:33N 47°58' W 122°21'0 0.3
2015-Jan-20 23:13N 47°58' W 122°21'0 0.3
2015-Jan-20 22:33N 47°58' W 122°21'0 1.0
2015-Jan-20 22:07N 47°58' W 122°20'0 0.4
2015-Jan-20 21:33N 47°58' W 122°20'1 1.5
2015-Jan-20 21:06N 47°57' W 122°20'1 1.8
2015-Jan-20 20:33N 47°58' W 122°21'1 2.1
2015-Jan-20 20:06N 47°57' W 122°20'1 1.8
2015-Jan-20 19:33N 47°58' W 122°21'1 2.2
2015-Jan-20 19:06N 47°58' W 122°20'1 1.7
2015-Jan-20 18:32N 47°58' W 122°21'0 0.2
2015-Jan-20 17:33N 47°58' W 122°21'1 0.6
2015-Jan-20 16:35N 47°58' W 122°20'014.1
2015-Jan-20 16:33N 47°58' W 122°20'0 0.1
2015-Jan-20 15:36N 47°58' W 122°20'0 9.1
2015-Jan-20 15:33N 47°58' W 122°21'1 2.5
2015-Jan-20 15:06N 47°57' W 122°20'1 1.8
2015-Jan-20 14:33N 47°58' W 122°21'0 0.1
2015-Jan-20 13:33N 47°58' W 122°21'0 0.4
2015-Jan-20 12:15N 47°59' W 122°21'0 0.1
2015-Jan-20 11:33N 47°59' W 122°21'0 0.0
2015-Jan-20 10:33N 47°59' W 122°21'0 0.0
2015-Jan-20 09:33N 47°59' W 122°21'0 0.0
2015-Jan-20 08:25N 47°59' W 122°21'0 0.0
2015-Jan-20 07:09N 47°59' W 122°21'0 0.0
2015-Jan-20 06:33N 47°59' W 122°21'0 0.0
2015-Jan-20 06:13N 47°59' W 122°21'0 0.0
2015-Jan-20 05:32N 47°59' W 122°21'0 0.3
2015-Jan-20 04:33N 47°58' W 122°21'0 0.6
2015-Jan-20 04:11N 47°58' W 122°21'0 0.3
2015-Jan-20 03:33N 47°58' W 122°20'0 0.4
2015-Jan-20 02:34N 47°58' W 122°21'1 0.9
2015-Jan-20 01:35N 47°58' W 122°20'115.4
2015-Jan-20 01:33N 47°58' W 122°21'0 0.1
2015-Jan-20 00:33N 47°58' W 122°21'0 0.2
2015-Jan-19 23:35N 47°58' W 122°21'013.6
2015-Jan-19 23:33N 47°58' W 122°21'1 0.8
2015-Jan-19 22:35N 47°58' W 122°20'114.5
2015-Jan-19 22:32N 47°58' W 122°21'0 0.2
2015-Jan-19 22:10N 47°58' W 122°21'0 0.4
2015-Jan-19 21:33N 47°58' W 122°20'0 0.2
2015-Jan-19 20:33N 47°58' W 122°21'1 0.6
2015-Jan-19 19:34N 47°58' W 122°20'017.4
2015-Jan-19 19:33N 47°58' W 122°20'1 1.7
2015-Jan-19 19:05N 47°57' W 122°20'1 1.8
2015-Jan-19 18:33N 47°58' W 122°21'0 0.1
2015-Jan-19 17:33N 47°58' W 122°21'2 3.4
2015-Jan-19 16:59N 47°57' W 122°18'2 5.5
2015-Jan-19 16:33N 47°58' W 122°21'0 0.3
2015-Jan-19 15:33N 47°58' W 122°21'0 0.2
2015-Jan-19 14:32N 47°58' W 122°21'2 3.8
2015-Jan-19 13:58N 47°57' W 122°18'2 4.4
2015-Jan-19 13:33N 47°58' W 122°20'0 0.5
2015-Jan-19 12:31N 47°58' W 122°21'0 0.0
2015-Jan-19 11:22N 47°58' W 122°21'0 0.0
2015-Jan-19 09:33N 47°58' W 122°21'  

Dump ship's entire track history